Time;durP1;ratioP1;P1;durP2;ratioP2;P2;SDS_P1;SDS_P2;PMS_P1;PMS_P2;Temp;Humidity;BMP_temperature;BMP_pressure;BME280_temperature;BME280_humidity;BME280_pressure;Samples;Min_cycle;Max_cycle;Signal;HPM_P1;HPM_P2
2022/08/12 00:44:16;;;;;;;4.13;3.45;;;;;;;;;;5066838;28;20475;-82
2022/08/12 00:46:47;;;;;;;3.92;3.50;;;;;;;;;;5066324;28;20934;-83
2022/08/12 00:49:13;;;;;;;3.87;3.47;;;;;;;;;;5065802;28;20433;-81
2022/08/12 00:54:24;;;;;;;4.80;3.67;;;;;;;;;;5065169;28;20423;-80
2022/08/12 00:56:54;;;;;;;5.47;3.20;;;;;;;;;;5065431;28;20438;-82
2022/08/12 00:59:20;;;;;;;3.90;3.20;;;;;;;;;;5064199;28;20435;-80
2022/08/12 01:01:48;;;;;;;4.03;3.40;;;;;;;;;;5066064;28;20425;-81
2022/08/12 01:12:32;;;;;;;5.47;3.00;;;;;;;;;;5065912;28;20426;-83
2022/08/12 01:14:59;;;;;;;5.13;4.13;;;;;;;;;;5064833;28;20425;-82
2022/08/12 01:17:28;;;;;;;4.00;3.30;;;;;;;;;;5064575;28;20489;-80
2022/08/12 01:19:56;;;;;;;5.88;3.70;;;;;;;;;;5065450;28;20434;-81
2022/08/12 01:22:25;;;;;;;3.90;3.60;;;;;;;;;;5064064;28;20424;-82
2022/08/12 01:25:02;;;;;;;4.20;3.00;;;;;;;;;;5065348;28;20437;-82
2022/08/12 01:27:31;;;;;;;4.43;3.40;;;;;;;;;;5064751;28;20795;-81
2022/08/12 01:29:58;;;;;;;3.40;3.10;;;;;;;;;;5065841;28;20474;-81
2022/08/12 01:32:26;;;;;;;9.10;3.78;;;;;;;;;;5061626;28;20454;-83
2022/08/12 01:34:57;;;;;;;5.00;3.70;;;;;;;;;;5065446;28;20428;-80
2022/08/12 01:37:29;;;;;;;6.22;3.67;;;;;;;;;;5062240;28;20417;-83
2022/08/12 01:39:57;;;;;;;6.55;3.80;;;;;;;;;;5064996;28;20431;-82
2022/08/12 01:42:25;;;;;;;4.40;3.40;;;;;;;;;;5063616;28;20418;-80
2022/08/12 01:44:54;;;;;;;4.63;3.30;;;;;;;;;;5064583;28;20459;-82
2022/08/12 01:47:29;;;;;;;6.32;3.72;;;;;;;;;;5064049;28;20421;-81
2022/08/12 01:50:04;;;;;;;4.18;3.40;;;;;;;;;;5066428;28;20497;-80
2022/08/12 01:52:37;;;;;;;3.72;3.40;;;;;;;;;;5063169;28;20450;-81
2022/08/12 01:55:05;;;;;;;4.57;3.60;;;;;;;;;;5063772;28;20421;-82
2022/08/12 01:57:38;;;;;;;3.72;3.42;;;;;;;;;;5063153;28;20429;-80
2022/08/12 02:00:06;;;;;;;8.15;3.85;;;;;;;;;;5066028;28;20425;-81
2022/08/12 02:02:37;;;;;;;7.25;3.65;;;;;;;;;;5065566;28;20924;-80
2022/08/12 02:13:47;;;;;;;4.40;3.40;;;;;;;;;;5064624;28;20421;-83
2022/08/12 02:16:16;;;;;;;4.78;3.80;;;;;;;;;;5064277;28;20430;-81
2022/08/12 02:18:46;;;;;;;4.68;3.70;;;;;;;;;;5063469;28;20432;-82
2022/08/12 02:21:19;;;;;;;9.32;4.13;;;;;;;;;;5063427;28;20947;-81
2022/08/12 02:23:46;;;;;;;5.25;3.50;;;;;;;;;;5063890;28;20430;-82
2022/08/12 02:26:14;;;;;;;6.35;4.30;;;;;;;;;;5064075;28;20426;-81
2022/08/12 02:28:41;;;;;;;5.43;3.60;;;;;;;;;;5062745;28;20427;-82
2022/08/12 02:31:10;;;;;;;6.15;4.00;;;;;;;;;;5060630;28;20467;-81
2022/08/12 02:33:36;;;;;;;4.97;3.70;;;;;;;;;;5065930;28;20491;-80
2022/08/12 02:36:03;;;;;;;3.35;3.05;;;;;;;;;;5064079;28;20419;-82
2022/08/12 02:38:33;;;;;;;6.00;3.70;;;;;;;;;;5060956;28;20506;-82
2022/08/12 02:41:02;;;;;;;4.85;3.60;;;;;;;;;;5062348;28;20423;-79
2022/08/12 02:43:33;;;;;;;5.00;3.95;;;;;;;;;;5066159;28;20432;-83
2022/08/12 02:46:01;;;;;;;5.90;4.10;;;;;;;;;;5062645;28;20437;-83
2022/08/12 02:48:31;;;;;;;4.15;3.85;;;;;;;;;;5062446;28;20458;-83
2022/08/12 02:51:03;;;;;;;4.72;3.50;;;;;;;;;;5064928;28;20417;-81
2022/08/12 02:53:31;;;;;;;4.13;3.72;;;;;;;;;;5060796;28;20440;-82
2022/08/12 02:55:59;;;;;;;6.37;3.97;;;;;;;;;;5064510;28;20970;-81
2022/08/12 02:58:25;;;;;;;4.97;3.78;;;;;;;;;;5063404;28;20429;-84
2022/08/12 03:00:52;;;;;;;4.82;4.05;;;;;;;;;;5065207;28;20431;-81
2022/08/12 03:03:19;;;;;;;4.68;3.63;;;;;;;;;;5061188;28;20446;-83
2022/08/12 03:05:51;;;;;;;4.90;4.00;;;;;;;;;;5064937;28;20423;-81
2022/08/12 03:08:19;;;;;;;4.80;3.40;;;;;;;;;;5062957;28;20433;-81
2022/08/12 03:10:47;;;;;;;4.90;3.88;;;;;;;;;;5063994;28;20427;-84
2022/08/12 03:13:15;;;;;;;4.75;3.28;;;;;;;;;;5063209;28;20430;-82
2022/08/12 03:15:42;;;;;;;3.70;3.40;;;;;;;;;;5063960;28;20437;-82
2022/08/12 03:18:13;;;;;;;4.93;3.72;;;;;;;;;;5062074;28;20433;-83
2022/08/12 03:20:40;;;;;;;5.53;3.80;;;;;;;;;;5063243;28;20518;-84
2022/08/12 03:23:10;;;;;;;4.57;3.97;;;;;;;;;;5067791;28;21082;-84
2022/08/12 03:25:38;;;;;;;5.47;3.63;;;;;;;;;;5068158;28;20477;-82
2022/08/12 03:28:05;;;;;;;4.13;3.83;;;;;;;;;;5067152;28;20432;-81
2022/08/12 03:30:32;;;;;;;4.43;4.03;;;;;;;;;;5066847;28;20436;-80
2022/08/12 03:33:02;;;;;;;4.93;4.18;;;;;;;;;;5066261;28;20429;-80
2022/08/12 03:35:29;;;;;;;4.00;3.60;;;;;;;;;;5067667;28;20427;-80
2022/08/12 03:37:56;;;;;;;5.47;4.70;;;;;;;;;;5067350;28;20435;-83
2022/08/12 04:02:24;;;;;;;6.38;4.43;;;;;;;;;;5045669;28;20414;-82
2022/08/12 04:04:50;;;;;;;6.25;4.68;;;;;;;;;;5068129;28;20437;-82
2022/08/12 04:07:17;;;;;;;6.57;4.68;;;;;;;;;;5065072;28;20425;-82
2022/08/12 04:09:45;;;;;;;4.68;4.28;;;;;;;;;;5065710;28;20469;-82
2022/08/12 04:14:57;;;;;;;4.80;4.40;;;;;;;;;;5066924;28;20423;-83
2022/08/12 04:17:23;;;;;;;6.35;4.75;;;;;;;;;;5064119;28;20435;-82
2022/08/12 04:19:50;;;;;;;7.35;4.80;;;;;;;;;;5065831;28;20440;-80
2022/08/12 04:22:16;;;;;;;7.90;4.60;;;;;;;;;;5067564;28;20510;-81
2022/08/12 04:24:45;;;;;;;6.35;4.57;;;;;;;;;;5064388;28;20428;-80
2022/08/12 04:27:13;;;;;;;7.20;4.30;;;;;;;;;;5065954;28;20430;-81
2022/08/12 04:29:40;;;;;;;6.43;4.28;;;;;;;;;;5067393;28;20434;-80
2022/08/12 04:32:07;;;;;;;6.20;4.50;;;;;;;;;;5066135;28;20431;-81
2022/08/12 04:34:36;;;;;;;7.10;4.78;;;;;;;;;;5065435;28;20506;-81
2022/08/12 04:37:02;;;;;;;5.65;4.53;;;;;;;;;;5063049;28;20469;-81
2022/08/12 04:39:29;;;;;;;6.15;4.60;;;;;;;;;;5064766;28;20429;-80
2022/08/12 04:41:58;;;;;;;4.55;4.15;;;;;;;;;;5064467;28;20800;-82
2022/08/12 04:44:26;;;;;;;4.68;4.10;;;;;;;;;;5067438;28;21217;-81
2022/08/12 04:46:54;;;;;;;6.30;4.20;;;;;;;;;;5065879;28;20425;-82
2022/08/12 04:49:23;;;;;;;4.80;4.40;;;;;;;;;;5065379;28;20464;-82
2022/08/12 04:51:49;;;;;;;5.90;4.22;;;;;;;;;;5063860;28;20431;-80
2022/08/12 04:54:15;;;;;;;7.38;4.15;;;;;;;;;;5066858;28;20417;-82
2022/08/12 04:56:43;;;;;;;5.00;4.50;;;;;;;;;;5063547;28;20964;-83
2022/08/12 04:59:10;;;;;;;4.95;4.30;;;;;;;;;;5065542;28;20434;-81
2022/08/12 05:01:38;;;;;;;5.60;4.00;;;;;;;;;;5060239;28;20421;-84
2022/08/12 05:04:05;;;;;;;7.70;5.33;;;;;;;;;;5063678;28;20433;-83
2022/08/12 05:06:31;;;;;;;4.88;4.25;;;;;;;;;;5061371;28;20434;-81
2022/08/12 05:08:59;;;;;;;4.80;4.10;;;;;;;;;;5067053;28;20429;-82
2022/08/12 05:11:26;;;;;;;5.00;4.47;;;;;;;;;;5064305;28;20459;-82
2022/08/12 05:13:56;;;;;;;5.47;4.00;;;;;;;;;;5064844;28;20424;-80
2022/08/12 05:16:23;;;;;;;7.15;4.50;;;;;;;;;;5062964;28;20415;-80
2022/08/12 05:18:51;;;;;;;4.93;4.20;;;;;;;;;;5064261;28;20492;-81
2022/08/12 05:21:17;;;;;;;5.50;4.20;;;;;;;;;;5062155;28;20412;-81
2022/08/12 05:23:44;;;;;;;6.47;4.00;;;;;;;;;;5062821;28;20425;-80
2022/08/12 05:26:10;;;;;;;6.13;4.63;;;;;;;;;;5064231;28;20435;-79
2022/08/12 05:28:37;;;;;;;7.82;4.80;;;;;;;;;;5062464;28;20438;-79
2022/08/12 05:31:03;;;;;;;6.47;4.37;;;;;;;;;;5064319;28;20769;-80
2022/08/12 05:33:36;;;;;;;5.18;4.50;;;;;;;;;;5063790;28;20420;-79
2022/08/12 05:36:06;;;;;;;5.40;4.60;;;;;;;;;;5063441;28;20413;-81
2022/08/12 05:41:19;;;;;;;5.75;4.53;;;;;;;;;;5064405;28;20418;-81
2022/08/12 05:43:47;;;;;;;7.22;4.32;;;;;;;;;;5062465;28;20432;-79
2022/08/12 05:46:13;;;;;;;5.63;4.80;;;;;;;;;;5059939;28;20415;-80
2022/08/12 05:48:40;;;;;;;7.60;4.50;;;;;;;;;;5062274;28;20436;-80
2022/08/12 05:51:10;;;;;;;13.57;5.95;;;;;;;;;;5065258;28;20415;-80
2022/08/12 05:53:36;;;;;;;33.50;8.85;;;;;;;;;;5064383;28;20433;-81
2022/08/12 05:56:03;;;;;;;32.95;9.52;;;;;;;;;;5062223;28;20416;-81
2022/08/12 05:58:30;;;;;;;27.42;8.43;;;;;;;;;;5065553;28;20435;-81
2022/08/12 06:00:57;;;;;;;11.57;5.80;;;;;;;;;;5062889;28;20405;-84
2022/08/12 06:03:24;;;;;;;6.68;4.90;;;;;;;;;;5062474;28;20799;-83
2022/08/12 06:05:51;;;;;;;5.55;4.60;;;;;;;;;;5062278;28;20433;-80
2022/08/12 06:08:19;;;;;;;4.57;3.90;;;;;;;;;;5062399;28;21381;-81
2022/08/12 06:10:45;;;;;;;6.30;4.40;;;;;;;;;;5062806;28;20437;-82
2022/08/12 06:13:14;;;;;;;6.80;4.75;;;;;;;;;;5060920;28;20431;-82
2022/08/12 06:15:40;;;;;;;5.47;4.70;;;;;;;;;;5060585;28;20792;-80
2022/08/12 06:18:07;;;;;;;4.93;4.43;;;;;;;;;;5062564;28;20429;-79
2022/08/12 06:20:35;;;;;;;5.07;4.30;;;;;;;;;;5061503;28;20423;-79
2022/08/12 06:23:01;;;;;;;6.82;4.22;;;;;;;;;;5059859;28;20432;-79
2022/08/12 06:25:29;;;;;;;7.28;4.40;;;;;;;;;;5062982;28;20440;-79
2022/08/12 06:27:57;;;;;;;4.28;3.90;;;;;;;;;;5058537;28;20437;-80
2022/08/12 06:30:25;;;;;;;5.47;3.80;;;;;;;;;;5063489;28;20920;-79
2022/08/12 06:32:52;;;;;;;5.23;3.93;;;;;;;;;;5059345;28;20427;-80
2022/08/12 06:35:18;;;;;;;6.10;4.20;;;;;;;;;;5060346;28;20423;-80
2022/08/12 06:37:47;;;;;;;7.88;4.80;;;;;;;;;;5062014;28;20421;-79
2022/08/12 06:40:14;;;;;;;7.60;4.75;;;;;;;;;;5061489;28;20455;-80
2022/08/12 06:42:47;;;;;;;4.40;4.00;;;;;;;;;;5061676;28;20419;-81
2022/08/12 06:45:13;;;;;;;6.18;3.90;;;;;;;;;;5057848;28;20932;-80
2022/08/12 06:47:40;;;;;;;4.53;3.67;;;;;;;;;;5062013;28;20432;-81
2022/08/12 06:50:07;;;;;;;4.30;3.75;;;;;;;;;;5062326;28;20416;-80
2022/08/12 06:52:33;;;;;;;5.22;4.40;;;;;;;;;;5065053;28;20429;-81
2022/08/12 06:55:00;;;;;;;6.28;4.15;;;;;;;;;;5064330;28;20420;-80
2022/08/12 06:57:26;;;;;;;5.20;4.20;;;;;;;;;;5065502;28;20454;-82
2022/08/12 06:59:54;;;;;;;4.40;4.00;;;;;;;;;;5063946;28;20683;-80
2022/08/12 07:02:21;;;;;;;4.95;4.03;;;;;;;;;;5067398;28;20431;-80
2022/08/12 07:04:48;;;;;;;5.35;4.10;;;;;;;;;;5065618;28;20429;-79
2022/08/12 07:07:15;;;;;;;4.90;4.03;;;;;;;;;;5063080;28;20438;-80
2022/08/12 07:09:43;;;;;;;4.80;4.30;;;;;;;;;;5063387;28;20421;-80
2022/08/12 07:12:18;;;;;;;5.18;3.92;;;;;;;;;;5063135;28;20438;-80
2022/08/12 07:14:44;;;;;;;5.20;3.67;;;;;;;;;;5062983;28;20492;-80
2022/08/12 07:17:13;;;;;;;7.40;4.73;;;;;;;;;;5064694;28;20428;-80
2022/08/12 07:19:41;;;;;;;6.90;4.07;;;;;;;;;;5067097;28;20427;-80
2022/08/12 07:22:12;;;;;;;6.32;4.18;;;;;;;;;;5065140;28;20432;-80
2022/08/12 07:24:39;;;;;;;4.95;4.10;;;;;;;;;;5061859;28;20432;-81
2022/08/12 07:27:05;;;;;;;6.78;4.50;;;;;;;;;;5063814;28;20429;-80
2022/08/12 07:29:33;;;;;;;6.47;4.53;;;;;;;;;;5066875;28;20943;-82
2022/08/12 07:32:00;;;;;;;6.88;4.78;;;;;;;;;;5065568;28;20498;-81
2022/08/12 07:34:28;;;;;;;6.22;4.47;;;;;;;;;;5065991;28;20425;-81
2022/08/12 07:36:54;;;;;;;5.60;4.30;;;;;;;;;;5065562;28;20437;-83
2022/08/12 07:39:21;;;;;;;8.55;5.15;;;;;;;;;;5064076;28;20466;-81
2022/08/12 07:41:47;;;;;;;4.30;3.90;;;;;;;;;;5066701;28;20434;-81
2022/08/12 07:44:14;;;;;;;7.68;4.10;;;;;;;;;;5065525;28;20421;-81
2022/08/12 07:46:42;;;;;;;4.53;4.13;;;;;;;;;;5068260;28;20793;-81
2022/08/12 07:49:09;;;;;;;4.97;4.28;;;;;;;;;;5066822;28;20443;-81
2022/08/12 07:51:37;;;;;;;6.10;4.38;;;;;;;;;;5066111;28;20424;-81
2022/08/12 07:54:08;;;;;;;5.30;4.20;;;;;;;;;;5063287;28;20773;-80
2022/08/12 07:56:36;;;;;;;8.30;4.20;;;;;;;;;;5062871;28;20464;-81
2022/08/12 07:59:03;;;;;;;6.60;4.35;;;;;;;;;;5062332;28;21035;-80
2022/08/12 08:01:32;;;;;;;4.70;4.30;;;;;;;;;;5064301;28;20416;-80
2022/08/12 08:06:44;;;;;;;8.13;4.50;;;;;;;;;;5064497;28;20424;-83
2022/08/12 08:09:13;;;;;;;7.40;4.70;;;;;;;;;;5064380;28;20416;-81
2022/08/12 08:14:27;;;;;;;5.05;4.40;;;;;;;;;;5063806;28;20457;-81
2022/08/12 08:16:53;;;;;;;9.05;4.55;;;;;;;;;;5063431;28;20933;-81
2022/08/12 08:19:22;;;;;;;8.73;5.57;;;;;;;;;;5063481;28;20417;-81
2022/08/12 08:21:50;;;;;;;14.25;5.20;;;;;;;;;;5062402;28;20478;-82
2022/08/12 08:24:17;;;;;;;5.20;3.90;;;;;;;;;;5065184;28;20419;-80
2022/08/12 08:26:46;;;;;;;4.50;4.10;;;;;;;;;;5064023;28;20434;-81
2022/08/12 08:29:12;;;;;;;4.57;4.00;;;;;;;;;;5062111;28;21597;-79
2022/08/12 08:31:42;;;;;;;7.90;4.50;;;;;;;;;;5062915;28;20424;-80
2022/08/12 08:34:09;;;;;;;5.80;4.35;;;;;;;;;;5061838;28;20415;-80
2022/08/12 08:36:38;;;;;;;4.60;4.00;;;;;;;;;;5062199;28;20503;-79
2022/08/12 08:39:06;;;;;;;5.38;4.40;;;;;;;;;;5061659;28;20424;-81
2022/08/12 08:44:16;;;;;;;5.53;4.20;;;;;;;;;;5062959;28;21044;-80
2022/08/12 08:46:43;;;;;;;7.00;4.30;;;;;;;;;;5062074;28;20437;-80
2022/08/12 08:49:10;;;;;;;6.82;4.13;;;;;;;;;;5061598;28;20422;-80
2022/08/12 08:51:37;;;;;;;11.75;5.05;;;;;;;;;;4999517;28;1792067;-80
2022/08/12 08:54:05;;;;;;;8.90;4.90;;;;;;;;;;5063586;28;20417;-81
2022/08/12 08:56:33;;;;;;;13.82;5.43;;;;;;;;;;5065831;28;20431;-81
2022/08/12 08:59:00;;;;;;;22.75;6.32;;;;;;;;;;5064208;28;20437;-81
2022/08/12 09:01:26;;;;;;;8.73;4.78;;;;;;;;;;5062469;28;20464;-80
2022/08/12 09:03:53;;;;;;;6.00;4.30;;;;;;;;;;5062509;28;20934;-81
2022/08/12 09:06:19;;;;;;;4.93;4.40;;;;;;;;;;5063769;28;20424;-81
2022/08/12 09:08:46;;;;;;;5.40;4.07;;;;;;;;;;5063415;28;20504;-81
2022/08/12 09:13:57;;;;;;;8.10;4.38;;;;;;;;;;5062197;28;20427;-82
2022/08/12 09:16:24;;;;;;;4.90;4.35;;;;;;;;;;5060892;28;20431;-80
2022/08/12 09:18:50;;;;;;;5.10;3.80;;;;;;;;;;5055337;28;20435;-82
2022/08/12 09:21:16;;;;;;;5.50;4.60;;;;;;;;;;5061461;28;20435;-81
2022/08/12 09:23:43;;;;;;;6.10;4.20;;;;;;;;;;5064743;28;20788;-80
2022/08/12 09:26:09;;;;;;;5.00;4.03;;;;;;;;;;5063929;28;20553;-81
2022/08/12 09:28:36;;;;;;;6.03;4.13;;;;;;;;;;5063933;28;20431;-81
2022/08/12 09:31:04;;;;;;;6.80;4.10;;;;;;;;;;5063060;28;20435;-81
2022/08/12 09:33:33;;;;;;;6.60;4.40;;;;;;;;;;5064525;28;20457;-81
2022/08/12 09:36:00;;;;;;;6.88;4.22;;;;;;;;;;5060968;28;20415;-80
2022/08/12 09:38:28;;;;;;;6.38;4.47;;;;;;;;;;5062895;28;20424;-83
2022/08/12 09:40:55;;;;;;;5.03;3.72;;;;;;;;;;5062881;28;20488;-82
2022/08/12 09:46:07;;;;;;;4.95;4.20;;;;;;;;;;5064221;28;20422;-81
2022/08/12 09:48:34;;;;;;;5.90;4.60;;;;;;;;;;5060583;28;20455;-81
2022/08/12 09:51:00;;;;;;;8.05;3.97;;;;;;;;;;5062602;28;20772;-82
2022/08/12 09:53:27;;;;;;;5.53;4.50;;;;;;;;;;5063037;28;20426;-80
2022/08/12 09:55:54;;;;;;;4.87;3.70;;;;;;;;;;5062844;28;20426;-81
2022/08/12 09:58:24;;;;;;;4.78;4.00;;;;;;;;;;5062131;28;20435;-80
2022/08/12 10:00:50;;;;;;;5.88;4.10;;;;;;;;;;5062388;28;20475;-80
2022/08/12 10:03:20;;;;;;;4.80;4.38;;;;;;;;;;5061301;28;20843;-81
2022/08/12 10:05:47;;;;;;;4.60;4.10;;;;;;;;;;5060903;28;21121;-81
2022/08/12 10:08:14;;;;;;;6.43;3.72;;;;;;;;;;5062305;28;20427;-81
2022/08/12 10:16:06;;;;;;;4.40;4.00;;;;;;;;;;5062364;28;20432;-81
2022/08/12 10:18:36;;;;;;;6.05;3.83;;;;;;;;;;5063274;28;20805;-80
2022/08/12 10:21:06;;;;;;;7.35;4.00;;;;;;;;;;5062164;28;20427;-81
2022/08/12 10:23:36;;;;;;;6.40;4.47;;;;;;;;;;5060447;28;20489;-81
2022/08/12 10:31:32;;;;;;;5.40;3.78;;;;;;;;;;5063673;28;20491;-83
2022/08/12 10:34:00;;;;;;;4.40;3.90;;;;;;;;;;5059266;28;20943;-82
2022/08/12 10:36:27;;;;;;;4.85;3.63;;;;;;;;;;5060784;28;20435;-83
2022/08/12 10:38:54;;;;;;;4.22;3.83;;;;;;;;;;5060438;28;20421;-83
2022/08/12 10:44:12;;;;;;;3.50;3.10;;;;;;;;;;5063354;28;21045;-81
2022/08/12 10:46:41;;;;;;;4.45;3.33;;;;;;;;;;5061722;28;20524;-81
2022/08/12 10:49:10;;;;;;;5.60;3.60;;;;;;;;;;5062036;28;20440;-80
2022/08/12 10:51:36;;;;;;;3.85;3.08;;;;;;;;;;5061042;28;20560;-81
2022/08/12 10:54:04;;;;;;;5.03;3.17;;;;;;;;;;5063972;28;20418;-81
2022/08/12 10:56:31;;;;;;;5.00;3.55;;;;;;;;;;5061695;28;20913;-81
2022/08/12 10:59:00;;;;;;;3.83;3.20;;;;;;;;;;5061205;28;20461;-82
2022/08/12 11:01:29;;;;;;;5.90;3.30;;;;;;;;;;5062337;28;20439;-81
2022/08/12 11:04:01;;;;;;;4.85;3.30;;;;;;;;;;5063060;28;20435;-81
2022/08/12 11:06:31;;;;;;;5.15;3.20;;;;;;;;;;5061740;28;20526;-82
2022/08/12 11:08:57;;;;;;;4.38;3.30;;;;;;;;;;5061099;28;20427;-80
2022/08/12 11:11:25;;;;;;;7.30;3.35;;;;;;;;;;5060271;28;20435;-80
2022/08/12 11:13:52;;;;;;;4.13;3.03;;;;;;;;;;5062345;28;20427;-80
2022/08/12 11:16:18;;;;;;;5.47;3.30;;;;;;;;;;5064501;28;20431;-82
2022/08/12 11:18:46;;;;;;;5.60;3.30;;;;;;;;;;5063490;28;20428;-83
2022/08/12 11:21:13;;;;;;;4.15;3.10;;;;;;;;;;5061504;28;20459;-81
2022/08/12 11:23:43;;;;;;;4.80;3.10;;;;;;;;;;5063320;28;20421;-84
2022/08/12 11:26:10;;;;;;;6.63;3.40;;;;;;;;;;5060775;28;20794;-82
2022/08/12 11:28:36;;;;;;;3.60;3.30;;;;;;;;;;5062907;28;20454;-84
2022/08/12 11:31:03;;;;;;;4.33;2.93;;;;;;;;;;5062208;28;20435;-81
2022/08/12 11:33:30;;;;;;;4.50;2.92;;;;;;;;;;5061123;28;20976;-83
2022/08/12 11:36:03;;;;;;;4.85;2.72;;;;;;;;;;5062741;28;20782;-81
2022/08/12 11:38:29;;;;;;;3.17;2.53;;;;;;;;;;5059585;28;20441;-81
2022/08/12 11:40:57;;;;;;;3.97;2.60;;;;;;;;;;5058162;28;20492;-80
2022/08/12 11:43:24;;;;;;;3.47;3.08;;;;;;;;;;5062244;28;20428;-81
2022/08/12 11:45:50;;;;;;;3.35;2.40;;;;;;;;;;5063646;28;20419;-81
2022/08/12 11:48:17;;;;;;;5.45;2.60;;;;;;;;;;5064419;28;20423;-83
2022/08/12 11:50:43;;;;;;;3.20;2.50;;;;;;;;;;5065915;28;20420;-81
2022/08/12 11:53:10;;;;;;;3.45;2.40;;;;;;;;;;5062224;28;20442;-82
2022/08/12 11:55:36;;;;;;;2.90;2.70;;;;;;;;;;5064703;28;20423;-80
2022/08/12 11:58:04;;;;;;;3.20;2.58;;;;;;;;;;5064451;28;20469;-80
2022/08/12 12:00:30;;;;;;;4.03;3.20;;;;;;;;;;5063747;28;20424;-80
2022/08/12 12:02:58;;;;;;;4.30;3.00;;;;;;;;;;5064685;28;22373;-82
2022/08/12 12:05:24;;;;;;;3.00;2.75;;;;;;;;;;5067052;28;20421;-80
2022/08/12 12:07:50;;;;;;;3.30;2.90;;;;;;;;;;5068139;28;20440;-81
2022/08/12 12:10:18;;;;;;;4.47;3.10;;;;;;;;;;5066095;28;20424;-83
2022/08/12 12:12:45;;;;;;;3.90;3.00;;;;;;;;;;5067641;28;20427;-83
2022/08/12 12:15:14;;;;;;;6.20;3.20;;;;;;;;;;5065527;28;20423;-82
2022/08/12 12:17:41;;;;;;;4.40;3.20;;;;;;;;;;5066643;28;20439;-82
2022/08/12 12:20:09;;;;;;;6.50;3.33;;;;;;;;;;5066245;28;20425;-81
2022/08/12 12:22:35;;;;;;;3.60;3.00;;;;;;;;;;5068894;28;21037;-82
2022/08/12 12:25:04;;;;;;;4.00;3.60;;;;;;;;;;5065696;28;20425;-79
2022/08/12 12:27:43;;;;;;;3.50;3.20;;;;;;;;;;5066028;28;21024;-82
2022/08/12 12:30:10;;;;;;;4.25;3.20;;;;;;;;;;5066423;28;20926;-80
2022/08/12 12:32:38;;;;;;;4.07;2.88;;;;;;;;;;5067541;28;20425;-80
2022/08/12 12:35:05;;;;;;;4.00;2.90;;;;;;;;;;5066563;28;20419;-82
2022/08/12 12:37:31;;;;;;;3.00;2.80;;;;;;;;;;5067714;28;20430;-81
2022/08/12 12:39:57;;;;;;;3.72;3.30;;;;;;;;;;5064986;28;20425;-82
2022/08/12 12:42:24;;;;;;;3.67;3.30;;;;;;;;;;5066176;28;20428;-80
2022/08/12 12:44:50;;;;;;;4.10;3.25;;;;;;;;;;5066935;28;20427;-81
2022/08/12 12:47:19;;;;;;;3.85;3.40;;;;;;;;;;5066753;28;20477;-80
2022/08/12 12:49:47;;;;;;;4.22;3.83;;;;;;;;;;5066024;28;21071;-80
2022/08/12 12:52:13;;;;;;;4.10;3.22;;;;;;;;;;5068145;28;20427;-81
2022/08/12 12:54:51;;;;;;;5.35;3.92;;;;;;;;;;5064848;28;20420;-81
2022/08/12 12:57:17;;;;;;;3.03;2.83;;;;;;;;;;5065481;28;20483;-83
2022/08/12 13:00:13;;;;;;;4.70;2.95;;;;;;;;;;5066254;28;20428;-82
2022/08/12 13:02:39;;;;;;;5.25;3.17;;;;;;;;;;5068403;28;20530;-82
2022/08/12 13:05:08;;;;;;;5.33;2.60;;;;;;;;;;5065023;28;20514;-82
2022/08/12 13:07:39;;;;;;;5.57;3.20;;;;;;;;;;5064473;28;20438;-82
2022/08/12 13:10:07;;;;;;;5.40;3.58;;;;;;;;;;5065700;28;20425;-83
2022/08/12 13:12:34;;;;;;;4.72;2.90;;;;;;;;;;5067377;28;20444;-82
2022/08/12 13:15:02;;;;;;;4.80;2.90;;;;;;;;;;5065591;28;20481;-81
2022/08/12 13:17:30;;;;;;;3.47;3.17;;;;;;;;;;5065202;28;20431;-83
2022/08/12 13:19:56;;;;;;;4.13;3.40;;;;;;;;;;5065330;28;20450;-82
2022/08/12 13:22:24;;;;;;;7.53;3.00;;;;;;;;;;5064898;28;20795;-82
2022/08/12 13:24:52;;;;;;;3.83;3.00;;;;;;;;;;5064410;28;20411;-82
2022/08/12 13:27:19;;;;;;;4.20;3.05;;;;;;;;;;5064246;28;20451;-84
2022/08/12 13:29:46;;;;;;;5.03;3.20;;;;;;;;;;5065869;28;20423;-79
2022/08/12 13:32:12;;;;;;;3.33;2.90;;;;;;;;;;5066376;28;20433;-81
2022/08/12 13:34:39;;;;;;;4.30;3.00;;;;;;;;;;5064007;28;20442;-83
2022/08/12 13:37:06;;;;;;;3.97;2.97;;;;;;;;;;5062659;28;20432;-84
2022/08/12 13:39:33;;;;;;;3.70;2.70;;;;;;;;;;5065814;28;20431;-82
2022/08/12 13:42:00;;;;;;;5.00;2.92;;;;;;;;;;5065086;28;20826;-81
2022/08/12 13:44:26;;;;;;;5.63;3.30;;;;;;;;;;5066902;28;21695;-81
2022/08/12 13:46:53;;;;;;;2.50;2.30;;;;;;;;;;5067144;28;20808;-81
2022/08/12 13:49:20;;;;;;;2.80;2.60;;;;;;;;;;5063922;28;20434;-82
2022/08/12 13:51:52;;;;;;;4.82;3.08;;;;;;;;;;5063475;28;20435;-82
2022/08/12 13:54:19;;;;;;;2.92;2.63;;;;;;;;;;5065532;28;20828;-81
2022/08/12 13:56:47;;;;;;;3.15;2.83;;;;;;;;;;5064406;28;20511;-85
2022/08/12 13:59:13;;;;;;;4.00;2.90;;;;;;;;;;5063678;28;20424;-81
2022/08/12 14:01:40;;;;;;;2.90;2.60;;;;;;;;;;5062196;28;20423;-84
2022/08/12 14:04:08;;;;;;;3.10;2.80;;;;;;;;;;5064938;28;20412;-83
2022/08/12 14:06:34;;;;;;;3.40;3.10;;;;;;;;;;5063851;28;20575;-83
2022/08/12 14:09:01;;;;;;;3.40;2.65;;;;;;;;;;5064187;28;20431;-83
2022/08/12 14:11:27;;;;;;;3.40;3.10;;;;;;;;;;5063946;28;20422;-82
2022/08/12 14:13:58;;;;;;;3.10;2.90;;;;;;;;;;5064268;28;20425;-81
2022/08/12 14:16:24;;;;;;;6.57;3.00;;;;;;;;;;5064343;28;20891;-81
2022/08/12 14:18:52;;;;;;;4.13;2.75;;;;;;;;;;5063306;28;20452;-82
2022/08/12 14:21:19;;;;;;;2.72;2.53;;;;;;;;;;5063163;28;20429;-82
2022/08/12 14:23:49;;;;;;;3.42;2.70;;;;;;;;;;5063673;28;20424;-80
2022/08/12 14:26:19;;;;;;;2.60;2.40;;;;;;;;;;5063469;28;20827;-83
2022/08/12 14:28:46;;;;;;;3.10;2.90;;;;;;;;;;5062570;28;20813;-80
2022/08/12 14:31:14;;;;;;;4.78;3.03;;;;;;;;;;5063341;28;20431;-82
2022/08/12 14:33:47;;;;;;;3.72;2.95;;;;;;;;;;5064028;28;20431;-83
2022/08/12 14:36:14;;;;;;;3.38;2.83;;;;;;;;;;5065557;28;20431;-82
2022/08/12 14:38:43;;;;;;;3.80;2.90;;;;;;;;;;5064297;28;20790;-82
2022/08/12 14:41:10;;;;;;;3.28;2.97;;;;;;;;;;5064552;28;20768;-79
2022/08/12 14:43:37;;;;;;;4.93;3.00;;;;;;;;;;5065685;28;20422;-83
2022/08/12 14:46:04;;;;;;;3.30;3.00;;;;;;;;;;5060778;28;20428;-83
2022/08/12 14:48:32;;;;;;;3.22;2.95;;;;;;;;;;5063847;28;20922;-82
2022/08/12 14:50:58;;;;;;;3.60;3.20;;;;;;;;;;5063451;28;20421;-83
2022/08/12 14:53:28;;;;;;;3.40;3.10;;;;;;;;;;5060226;28;20423;-82
2022/08/12 14:55:54;;;;;;;3.87;3.17;;;;;;;;;;5063425;28;20777;-81
2022/08/12 14:58:22;;;;;;;2.90;2.70;;;;;;;;;;5063436;28;20424;-81
2022/08/12 15:03:34;;;;;;;4.10;3.10;;;;;;;;;;5061608;28;20484;-81
2022/08/12 15:06:02;;;;;;;3.20;2.75;;;;;;;;;;5061673;28;20463;-82
2022/08/12 15:08:29;;;;;;;2.80;2.60;;;;;;;;;;5063961;28;20436;-83
2022/08/12 15:10:56;;;;;;;3.47;3.17;;;;;;;;;;5063298;28;20423;-81
2022/08/12 15:13:23;;;;;;;3.97;3.20;;;;;;;;;;5063768;28;20417;-81
2022/08/12 15:15:51;;;;;;;3.08;2.72;;;;;;;;;;5060398;28;20976;-81
2022/08/12 15:18:18;;;;;;;3.20;2.70;;;;;;;;;;5064417;28;20433;-83
2022/08/12 15:20:46;;;;;;;3.13;2.90;;;;;;;;;;5063675;28;20429;-82
2022/08/12 15:23:13;;;;;;;3.40;2.90;;;;;;;;;;5065306;28;20413;-82
2022/08/12 15:25:40;;;;;;;6.07;3.10;;;;;;;;;;5062994;28;20423;-82
2022/08/12 15:28:08;;;;;;;3.45;3.10;;;;;;;;;;5068147;28;20941;-81
2022/08/12 15:30:36;;;;;;;4.45;3.00;;;;;;;;;;5066747;28;20426;-82
2022/08/12 15:33:07;;;;;;;3.05;2.85;;;;;;;;;;5067680;28;20435;-82
2022/08/12 15:35:34;;;;;;;3.10;2.83;;;;;;;;;;5066986;28;20471;-80
2022/08/12 15:38:03;;;;;;;3.20;3.00;;;;;;;;;;5066377;28;20429;-81
2022/08/12 15:40:29;;;;;;;4.82;2.80;;;;;;;;;;5067722;28;20438;-83
2022/08/12 15:42:57;;;;;;;6.60;3.28;;;;;;;;;;5070116;28;20499;-80
2022/08/12 15:45:23;;;;;;;3.35;3.03;;;;;;;;;;5069557;28;20804;-80
2022/08/12 15:47:51;;;;;;;3.50;3.20;;;;;;;;;;5066521;28;20936;-81
2022/08/12 15:50:18;;;;;;;5.38;3.20;;;;;;;;;;5068647;28;20461;-79
2022/08/12 15:52:44;;;;;;;6.43;3.07;;;;;;;;;;5066747;28;20427;-80
2022/08/12 15:55:12;;;;;;;3.60;3.30;;;;;;;;;;5067904;28;20430;-80
2022/08/12 15:57:40;;;;;;;4.40;3.28;;;;;;;;;;5071127;28;20932;-81
2022/08/12 16:00:07;;;;;;;3.70;3.10;;;;;;;;;;5065786;28;20417;-80
2022/08/12 16:02:39;;;;;;;4.50;3.10;;;;;;;;;;5068618;28;20423;-81
2022/08/12 16:05:06;;;;;;;3.53;3.22;;;;;;;;;;5066351;28;20418;-81
2022/08/12 16:07:33;;;;;;;4.25;3.10;;;;;;;;;;5067379;28;20422;-80
2022/08/12 16:09:59;;;;;;;4.13;3.42;;;;;;;;;;5069873;28;20429;-81
2022/08/12 16:12:29;;;;;;;4.00;3.10;;;;;;;;;;5069757;28;20432;-80
2022/08/12 16:14:56;;;;;;;4.90;3.20;;;;;;;;;;5066654;28;20425;-81
2022/08/12 16:17:22;;;;;;;4.25;3.00;;;;;;;;;;5069393;28;20442;-82
2022/08/12 16:19:49;;;;;;;3.85;3.40;;;;;;;;;;5068218;28;20424;-82
2022/08/12 16:22:15;;;;;;;3.20;3.00;;;;;;;;;;5068576;28;21216;-81
2022/08/12 16:24:43;;;;;;;4.25;3.42;;;;;;;;;;5064811;28;20437;-81
2022/08/12 16:27:10;;;;;;;3.20;2.90;;;;;;;;;;5076326;28;20951;-82
2022/08/12 16:29:39;;;;;;;3.63;3.33;;;;;;;;;;5066492;28;20449;-82
2022/08/12 16:32:05;;;;;;;3.50;3.20;;;;;;;;;;5066320;28;20479;-81
2022/08/12 16:34:33;;;;;;;3.58;3.28;;;;;;;;;;5066074;28;20415;-81
2022/08/12 16:37:01;;;;;;;4.00;3.50;;;;;;;;;;5066823;28;20429;-81
2022/08/12 16:39:27;;;;;;;4.63;3.00;;;;;;;;;;5063498;28;20433;-81
2022/08/12 16:41:54;;;;;;;3.70;3.10;;;;;;;;;;5064896;28;20427;-82
2022/08/12 16:44:20;;;;;;;4.10;3.30;;;;;;;;;;5065692;28;20458;-82
2022/08/12 16:46:50;;;;;;;4.60;3.47;;;;;;;;;;5066565;28;20437;-82